sensor_id;sensor_type;location;lat;lon;timestamp;temperature;humidity
38436;DHT22;24220;48.168;14.024;2022-10-13T00:01:22;16.60;63.00
38436;DHT22;24220;48.168;14.024;2022-10-13T00:03:50;16.60;63.00
38436;DHT22;24220;48.168;14.024;2022-10-13T00:06:19;16.60;63.60
38436;DHT22;24220;48.168;14.024;2022-10-13T00:08:47;16.70;63.30
38436;DHT22;24220;48.168;14.024;2022-10-13T00:11:19;16.70;63.30
38436;DHT22;24220;48.168;14.024;2022-10-13T00:13:50;16.70;63.20
38436;DHT22;24220;48.168;14.024;2022-10-13T00:16:20;16.70;63.40
38436;DHT22;24220;48.168;14.024;2022-10-13T00:18:48;16.70;63.40
38436;DHT22;24220;48.168;14.024;2022-10-13T00:21:23;16.70;63.40
38436;DHT22;24220;48.168;14.024;2022-10-13T00:23:52;16.70;63.50
38436;DHT22;24220;48.168;14.024;2022-10-13T00:26:23;16.70;63.50
38436;DHT22;24220;48.168;14.024;2022-10-13T00:28:52;16.70;63.40
38436;DHT22;24220;48.168;14.024;2022-10-13T00:31:25;16.80;63.50
38436;DHT22;24220;48.168;14.024;2022-10-13T00:33:53;16.80;63.50
38436;DHT22;24220;48.168;14.024;2022-10-13T00:36:22;16.80;63.50
38436;DHT22;24220;48.168;14.024;2022-10-13T00:38:52;16.80;63.50
38436;DHT22;24220;48.168;14.024;2022-10-13T00:41:20;16.80;63.40
38436;DHT22;24220;48.168;14.024;2022-10-13T00:46:15;16.80;63.40
38436;DHT22;24220;48.168;14.024;2022-10-13T00:48:44;16.80;63.30
38436;DHT22;24220;48.168;14.024;2022-10-13T00:51:14;16.80;63.30
38436;DHT22;24220;48.168;14.024;2022-10-13T00:53:45;16.80;63.10
38436;DHT22;24220;48.168;14.024;2022-10-13T00:56:15;16.80;63.80
38436;DHT22;24220;48.168;14.024;2022-10-13T00:58:45;16.80;63.20
38436;DHT22;24220;48.168;14.024;2022-10-13T01:01:13;16.80;63.20
38436;DHT22;24220;48.168;14.024;2022-10-13T01:03:43;16.80;63.10
38436;DHT22;24220;48.168;14.024;2022-10-13T01:06:14;16.80;63.90
38436;DHT22;24220;48.168;14.024;2022-10-13T01:08:48;16.90;63.40
38436;DHT22;24220;48.168;14.024;2022-10-13T01:17:46;16.90;63.50
38436;DHT22;24220;48.168;14.024;2022-10-13T01:34:43;16.90;63.70
38436;DHT22;24220;48.168;14.024;2022-10-13T01:37:31;16.90;63.50
38436;DHT22;24220;48.168;14.024;2022-10-13T01:40:25;16.90;63.60
38436;DHT22;24220;48.168;14.024;2022-10-13T01:43:05;16.80;63.70
38436;DHT22;24220;48.168;14.024;2022-10-13T01:45:41;16.90;63.60
38436;DHT22;24220;48.168;14.024;2022-10-13T01:48:12;16.90;63.70
38436;DHT22;24220;48.168;14.024;2022-10-13T01:50:40;16.90;63.50
38436;DHT22;24220;48.168;14.024;2022-10-13T01:53:09;16.90;63.70
38436;DHT22;24220;48.168;14.024;2022-10-13T01:55:51;16.90;63.90
38436;DHT22;24220;48.168;14.024;2022-10-13T01:58:19;16.90;63.70
38436;DHT22;24220;48.168;14.024;2022-10-13T02:01:58;16.90;63.60
38436;DHT22;24220;48.168;14.024;2022-10-13T02:06:41;16.90;63.80
38436;DHT22;24220;48.168;14.024;2022-10-13T02:10:01;16.90;63.90
38436;DHT22;24220;48.168;14.024;2022-10-13T02:12:09;16.90;63.80
38436;DHT22;24220;48.168;14.024;2022-10-13T02:14:40;16.90;64.00
38436;DHT22;24220;48.168;14.024;2022-10-13T02:17:08;16.90;63.90
38436;DHT22;24220;48.168;14.024;2022-10-13T02:19:39;16.90;64.00
38436;DHT22;24220;48.168;14.024;2022-10-13T02:22:09;16.90;64.10
38436;DHT22;24220;48.168;14.024;2022-10-13T02:24:39;16.90;64.20
38436;DHT22;24220;48.168;14.024;2022-10-13T02:27:09;17.00;64.30
38436;DHT22;24220;48.168;14.024;2022-10-13T02:29:51;16.90;64.30
38436;DHT22;24220;48.168;14.024;2022-10-13T02:32:19;16.90;64.40
38436;DHT22;24220;48.168;14.024;2022-10-13T02:34:48;17.00;64.30
38436;DHT22;24220;48.168;14.024;2022-10-13T02:37:15;17.00;64.20
38436;DHT22;24220;48.168;14.024;2022-10-13T02:39:43;17.00;64.20
38436;DHT22;24220;48.168;14.024;2022-10-13T02:42:10;17.00;64.20
38436;DHT22;24220;48.168;14.024;2022-10-13T02:44:37;16.90;64.10
38436;DHT22;24220;48.168;14.024;2022-10-13T02:47:07;17.00;64.20
38436;DHT22;24220;48.168;14.024;2022-10-13T02:49:36;17.00;64.20
38436;DHT22;24220;48.168;14.024;2022-10-13T02:52:03;17.00;64.30
38436;DHT22;24220;48.168;14.024;2022-10-13T02:54:31;17.00;64.30
38436;DHT22;24220;48.168;14.024;2022-10-13T02:57:01;17.00;64.30
38436;DHT22;24220;48.168;14.024;2022-10-13T02:59:28;17.00;64.30
38436;DHT22;24220;48.168;14.024;2022-10-13T03:02:00;17.00;64.40
38436;DHT22;24220;48.168;14.024;2022-10-13T03:04:30;17.00;64.40
38436;DHT22;24220;48.168;14.024;2022-10-13T03:06:57;17.00;64.40
38436;DHT22;24220;48.168;14.024;2022-10-13T03:09:25;17.00;64.40
38436;DHT22;24220;48.168;14.024;2022-10-13T03:11:52;17.00;64.50
38436;DHT22;24220;48.168;14.024;2022-10-13T03:14:19;17.00;64.40
38436;DHT22;24220;48.168;14.024;2022-10-13T03:16:51;17.00;64.30
38436;DHT22;24220;48.168;14.024;2022-10-13T03:19:19;17.00;64.20
38436;DHT22;24220;48.168;14.024;2022-10-13T03:21:46;17.00;64.30
38436;DHT22;24220;48.168;14.024;2022-10-13T03:24:13;17.00;64.30
38436;DHT22;24220;48.168;14.024;2022-10-13T03:26:43;17.00;64.40
38436;DHT22;24220;48.168;14.024;2022-10-13T03:29:15;17.00;64.40
38436;DHT22;24220;48.168;14.024;2022-10-13T03:31:45;17.00;64.40
38436;DHT22;24220;48.168;14.024;2022-10-13T03:34:15;17.00;64.30
38436;DHT22;24220;48.168;14.024;2022-10-13T03:36:44;17.00;64.50
38436;DHT22;24220;48.168;14.024;2022-10-13T03:39:12;17.00;64.30
38436;DHT22;24220;48.168;14.024;2022-10-13T03:41:39;17.00;64.30
38436;DHT22;24220;48.168;14.024;2022-10-13T03:44:12;17.10;64.40
38436;DHT22;24220;48.168;14.024;2022-10-13T03:46:40;17.00;64.40
38436;DHT22;24220;48.168;14.024;2022-10-13T03:49:10;17.00;64.40
38436;DHT22;24220;48.168;14.024;2022-10-13T03:51:40;17.00;64.30
38436;DHT22;24220;48.168;14.024;2022-10-13T03:54:11;17.10;64.30
38436;DHT22;24220;48.168;14.024;2022-10-13T03:56:39;17.10;64.20
38436;DHT22;24220;48.168;14.024;2022-10-13T03:59:06;17.10;64.20
38436;DHT22;24220;48.168;14.024;2022-10-13T04:01:36;17.10;64.20
38436;DHT22;24220;48.168;14.024;2022-10-13T04:04:05;17.10;64.20
38436;DHT22;24220;48.168;14.024;2022-10-13T04:06:35;17.10;64.20
38436;DHT22;24220;48.168;14.024;2022-10-13T04:09:02;17.10;64.20
38436;DHT22;24220;48.168;14.024;2022-10-13T04:11:32;17.10;64.20
38436;DHT22;24220;48.168;14.024;2022-10-13T04:14:00;17.10;64.20
38436;DHT22;24220;48.168;14.024;2022-10-13T04:16:30;17.10;64.30
38436;DHT22;24220;48.168;14.024;2022-10-13T04:19:03;17.10;64.20
38436;DHT22;24220;48.168;14.024;2022-10-13T04:21:33;17.10;64.20
38436;DHT22;24220;48.168;14.024;2022-10-13T04:24:01;17.10;64.30
38436;DHT22;24220;48.168;14.024;2022-10-13T04:26:30;17.00;64.20
38436;DHT22;24220;48.168;14.024;2022-10-13T04:28:58;17.10;64.20
38436;DHT22;24220;48.168;14.024;2022-10-13T04:31:28;17.10;64.20
38436;DHT22;24220;48.168;14.024;2022-10-13T04:33:57;17.00;64.20
38436;DHT22;24220;48.168;14.024;2022-10-13T04:36:25;17.00;64.20
38436;DHT22;24220;48.168;14.024;2022-10-13T04:38:55;17.10;64.20
38436;DHT22;24220;48.168;14.024;2022-10-13T04:41:24;17.10;64.20
38436;DHT22;24220;48.168;14.024;2022-10-13T04:43:52;17.10;64.20
38436;DHT22;24220;48.168;14.024;2022-10-13T04:46:25;17.10;64.10
38436;DHT22;24220;48.168;14.024;2022-10-13T04:48:52;17.10;63.90
38436;DHT22;24220;48.168;14.024;2022-10-13T04:51:26;17.00;63.80
38436;DHT22;24220;48.168;14.024;2022-10-13T04:53:59;17.00;63.70
38436;DHT22;24220;48.168;14.024;2022-10-13T04:56:33;17.00;63.50
38436;DHT22;24220;48.168;14.024;2022-10-13T04:59:02;17.00;63.40
38436;DHT22;24220;48.168;14.024;2022-10-13T05:01:32;17.00;63.50
38436;DHT22;24220;48.168;14.024;2022-10-13T05:04:01;17.00;63.30
38436;DHT22;24220;48.168;14.024;2022-10-13T05:06:33;17.00;63.20
38436;DHT22;24220;48.168;14.024;2022-10-13T05:09:02;17.00;63.30
38436;DHT22;24220;48.168;14.024;2022-10-13T05:11:30;17.00;63.30
38436;DHT22;24220;48.168;14.024;2022-10-13T05:13:58;17.00;63.30
38436;DHT22;24220;48.168;14.024;2022-10-13T05:16:27;17.00;63.40
38436;DHT22;24220;48.168;14.024;2022-10-13T05:18:55;17.00;63.40
38436;DHT22;24220;48.168;14.024;2022-10-13T05:21:25;17.00;64.10
38436;DHT22;24220;48.168;14.024;2022-10-13T05:23:54;17.00;63.40
38436;DHT22;24220;48.168;14.024;2022-10-13T05:26:24;16.90;63.20
38436;DHT22;24220;48.168;14.024;2022-10-13T05:28:59;17.00;63.30
38436;DHT22;24220;48.168;14.024;2022-10-13T05:31:27;17.00;63.10
38436;DHT22;24220;48.168;14.024;2022-10-13T05:33:56;17.00;63.40
38436;DHT22;24220;48.168;14.024;2022-10-13T05:36:25;17.00;62.80
38436;DHT22;24220;48.168;14.024;2022-10-13T05:38:55;17.00;62.80
38436;DHT22;24220;48.168;14.024;2022-10-13T05:41:24;16.90;62.60
38436;DHT22;24220;48.168;14.024;2022-10-13T05:43:55;17.00;62.80
38436;DHT22;24220;48.168;14.024;2022-10-13T05:46:26;16.90;62.70
38436;DHT22;24220;48.168;14.024;2022-10-13T05:48:54;16.90;62.70
38436;DHT22;24220;48.168;14.024;2022-10-13T05:51:26;16.90;63.00
38436;DHT22;24220;48.168;14.024;2022-10-13T05:54:03;16.90;63.00
38436;DHT22;24220;48.168;14.024;2022-10-13T05:56:39;16.90;63.00
38436;DHT22;24220;48.168;14.024;2022-10-13T05:59:09;16.90;63.10
38436;DHT22;24220;48.168;14.024;2022-10-13T06:01:38;16.90;63.10
38436;DHT22;24220;48.168;14.024;2022-10-13T06:04:12;17.00;63.10
38436;DHT22;24220;48.168;14.024;2022-10-13T06:06:41;16.90;63.00
38436;DHT22;24220;48.168;14.024;2022-10-13T06:09:11;16.90;62.90
38436;DHT22;24220;48.168;14.024;2022-10-13T06:11:38;17.00;63.10
38436;DHT22;24220;48.168;14.024;2022-10-13T06:14:06;16.90;62.90
38436;DHT22;24220;48.168;14.024;2022-10-13T06:16:34;17.00;63.50
38436;DHT22;24220;48.168;14.024;2022-10-13T06:19:06;17.00;62.90
38436;DHT22;24220;48.168;14.024;2022-10-13T06:21:34;17.00;63.00
38436;DHT22;24220;48.168;14.024;2022-10-13T06:24:04;17.00;62.90
38436;DHT22;24220;48.168;14.024;2022-10-13T06:26:34;16.90;62.60
38436;DHT22;24220;48.168;14.024;2022-10-13T06:29:01;17.00;62.70
38436;DHT22;24220;48.168;14.024;2022-10-13T06:31:31;17.00;62.70
38436;DHT22;24220;48.168;14.024;2022-10-13T06:33:59;17.00;62.80
38436;DHT22;24220;48.168;14.024;2022-10-13T06:36:28;17.00;62.70
38436;DHT22;24220;48.168;14.024;2022-10-13T06:38:56;17.00;62.60
38436;DHT22;24220;48.168;14.024;2022-10-13T06:41:23;17.00;62.60
38436;DHT22;24220;48.168;14.024;2022-10-13T06:43:53;17.00;62.60
38436;DHT22;24220;48.168;14.024;2022-10-13T06:46:24;17.00;62.30
38436;DHT22;24220;48.168;14.024;2022-10-13T06:48:51;17.00;62.30
38436;DHT22;24220;48.168;14.024;2022-10-13T06:51:21;17.00;62.30
38436;DHT22;24220;48.168;14.024;2022-10-13T06:53:51;17.10;62.40
38436;DHT22;24220;48.168;14.024;2022-10-13T06:56:18;17.10;62.60
38436;DHT22;24220;48.168;14.024;2022-10-13T06:58:45;17.10;62.90
38436;DHT22;24220;48.168;14.024;2022-10-13T07:01:13;17.10;62.60
38436;DHT22;24220;48.168;14.024;2022-10-13T07:03:41;17.10;62.90
38436;DHT22;24220;48.168;14.024;2022-10-13T07:06:08;17.10;62.80
38436;DHT22;24220;48.168;14.024;2022-10-13T07:08:39;17.20;62.70
38436;DHT22;24220;48.168;14.024;2022-10-13T07:11:08;17.20;62.60
38436;DHT22;24220;48.168;14.024;2022-10-13T07:13:42;17.20;62.70
38436;DHT22;24220;48.168;14.024;2022-10-13T07:16:14;17.20;62.90
38436;DHT22;24220;48.168;14.024;2022-10-13T07:18:41;17.30;62.90
38436;DHT22;24220;48.168;14.024;2022-10-13T07:21:09;17.20;63.00
38436;DHT22;24220;48.168;14.024;2022-10-13T07:23:36;17.30;63.10
38436;DHT22;24220;48.168;14.024;2022-10-13T07:26:07;17.30;63.00
38436;DHT22;24220;48.168;14.024;2022-10-13T07:28:35;17.30;63.00
38436;DHT22;24220;48.168;14.024;2022-10-13T07:31:07;17.40;63.20
38436;DHT22;24220;48.168;14.024;2022-10-13T07:33:37;17.40;62.60
38436;DHT22;24220;48.168;14.024;2022-10-13T07:36:05;17.40;62.60
38436;DHT22;24220;48.168;14.024;2022-10-13T07:38:32;17.50;63.00
38436;DHT22;24220;48.168;14.024;2022-10-13T07:41:01;17.50;63.00
38436;DHT22;24220;48.168;14.024;2022-10-13T07:43:29;17.50;63.00
38436;DHT22;24220;48.168;14.024;2022-10-13T07:46:00;17.50;62.90
38436;DHT22;24220;48.168;14.024;2022-10-13T07:48:27;17.60;62.60
38436;DHT22;24220;48.168;14.024;2022-10-13T07:50:57;17.60;62.90
38436;DHT22;24220;48.168;14.024;2022-10-13T07:53:25;17.70;62.00
38436;DHT22;24220;48.168;14.024;2022-10-13T07:55:52;17.70;62.20
38436;DHT22;24220;48.168;14.024;2022-10-13T07:58:21;17.70;62.40
38436;DHT22;24220;48.168;14.024;2022-10-13T08:00:56;17.70;62.50
38436;DHT22;24220;48.168;14.024;2022-10-13T08:03:28;17.70;62.00
38436;DHT22;24220;48.168;14.024;2022-10-13T08:05:58;17.70;62.50
38436;DHT22;24220;48.168;14.024;2022-10-13T08:08:29;17.80;62.80
38436;DHT22;24220;48.168;14.024;2022-10-13T08:11:03;17.80;62.70
38436;DHT22;24220;48.168;14.024;2022-10-13T08:13:31;17.80;62.90
38436;DHT22;24220;48.168;14.024;2022-10-13T08:15:59;17.90;62.80
38436;DHT22;24220;48.168;14.024;2022-10-13T08:18:30;17.90;62.40
38436;DHT22;24220;48.168;14.024;2022-10-13T08:21:01;17.90;62.70
38436;DHT22;24220;48.168;14.024;2022-10-13T08:23:49;17.90;62.60
38436;DHT22;24220;48.168;14.024;2022-10-13T08:26:25;18.00;62.40
38436;DHT22;24220;48.168;14.024;2022-10-13T08:28:55;18.00;62.80
38436;DHT22;24220;48.168;14.024;2022-10-13T08:31:45;18.00;62.70
38436;DHT22;24220;48.168;14.024;2022-10-13T08:34:12;18.10;62.80
38436;DHT22;24220;48.168;14.024;2022-10-13T08:36:40;18.10;62.20
38436;DHT22;24220;48.168;14.024;2022-10-13T08:39:07;18.10;62.40
38436;DHT22;24220;48.168;14.024;2022-10-13T08:41:40;18.10;62.50
38436;DHT22;24220;48.168;14.024;2022-10-13T08:44:23;18.10;62.00
38436;DHT22;24220;48.168;14.024;2022-10-13T08:49:50;18.20;62.30
38436;DHT22;24220;48.168;14.024;2022-10-13T08:52:25;18.20;62.30
38436;DHT22;24220;48.168;14.024;2022-10-13T08:54:57;18.30;62.50
38436;DHT22;24220;48.168;14.024;2022-10-13T08:57:25;18.40;62.80
38436;DHT22;24220;48.168;14.024;2022-10-13T08:59:52;18.30;62.80
38436;DHT22;24220;48.168;14.024;2022-10-13T09:02:29;18.40;62.80
38436;DHT22;24220;48.168;14.024;2022-10-13T09:05:00;18.40;62.40
38436;DHT22;24220;48.168;14.024;2022-10-13T09:07:30;18.50;62.50
38436;DHT22;24220;48.168;14.024;2022-10-13T09:09:58;18.50;62.70
38436;DHT22;24220;48.168;14.024;2022-10-13T09:12:30;18.60;62.50
38436;DHT22;24220;48.168;14.024;2022-10-13T09:15:03;18.60;62.60
38436;DHT22;24220;48.168;14.024;2022-10-13T09:17:35;18.60;62.60
38436;DHT22;24220;48.168;14.024;2022-10-13T09:23:03;18.70;62.90
38436;DHT22;24220;48.168;14.024;2022-10-13T09:25:45;18.80;62.90
38436;DHT22;24220;48.168;14.024;2022-10-13T09:28:30;18.80;62.50
38436;DHT22;24220;48.168;14.024;2022-10-13T09:33:35;18.80;63.00
38436;DHT22;24220;48.168;14.024;2022-10-13T09:38:33;18.90;63.20
38436;DHT22;24220;48.168;14.024;2022-10-13T09:46:33;19.00;63.70
38436;DHT22;24220;48.168;14.024;2022-10-13T09:52:15;19.10;63.10
38436;DHT22;24220;48.168;14.024;2022-10-13T09:54:50;19.20;62.70
38436;DHT22;24220;48.168;14.024;2022-10-13T10:02:45;19.30;62.60
38436;DHT22;24220;48.168;14.024;2022-10-13T10:05:27;19.30;63.40
38436;DHT22;24220;48.168;14.024;2022-10-13T10:08:07;19.40;63.40
38436;DHT22;24220;48.168;14.024;2022-10-13T10:10:42;19.50;63.20
38436;DHT22;24220;48.168;14.024;2022-10-13T10:13:11;19.60;62.70
38436;DHT22;24220;48.168;14.024;2022-10-13T10:15:46;19.70;62.40
38436;DHT22;24220;48.168;14.024;2022-10-13T10:21:22;19.90;61.90
38436;DHT22;24220;48.168;14.024;2022-10-13T10:29:18;20.10;62.00
38436;DHT22;24220;48.168;14.024;2022-10-13T10:34:46;20.20;62.40
38436;DHT22;24220;48.168;14.024;2022-10-13T10:37:39;20.20;62.20
38436;DHT22;24220;48.168;14.024;2022-10-13T10:43:48;20.40;62.50
38436;DHT22;24220;48.168;14.024;2022-10-13T10:46:27;20.50;61.80
38436;DHT22;24220;48.168;14.024;2022-10-13T10:49:01;20.60;61.50
38436;DHT22;24220;48.168;14.024;2022-10-13T10:51:34;20.60;61.30
38436;DHT22;24220;48.168;14.024;2022-10-13T10:54:25;20.70;60.90
38436;DHT22;24220;48.168;14.024;2022-10-13T10:57:43;20.70;60.60
38436;DHT22;24220;48.168;14.024;2022-10-13T11:00:05;20.70;59.40
38436;DHT22;24220;48.168;14.024;2022-10-13T11:05:24;20.70;59.70
38436;DHT22;24220;48.168;14.024;2022-10-13T11:07:57;20.60;59.50
38436;DHT22;24220;48.168;14.024;2022-10-13T11:10:26;20.60;59.60
38436;DHT22;24220;48.168;14.024;2022-10-13T11:15:27;20.60;60.00
38436;DHT22;24220;48.168;14.024;2022-10-13T11:17:57;20.60;60.10
38436;DHT22;24220;48.168;14.024;2022-10-13T11:25:37;20.50;60.30
38436;DHT22;24220;48.168;14.024;2022-10-13T11:31:24;20.50;60.30
38436;DHT22;24220;48.168;14.024;2022-10-13T11:33:57;20.50;60.30
38436;DHT22;24220;48.168;14.024;2022-10-13T11:45:07;20.70;59.70
38436;DHT22;24220;48.168;14.024;2022-10-13T11:55:52;20.90;60.00
38436;DHT22;24220;48.168;14.024;2022-10-13T12:03:32;21.00;60.30
38436;DHT22;24220;48.168;14.024;2022-10-13T12:06:05;21.00;59.80
38436;DHT22;24220;48.168;14.024;2022-10-13T12:08:35;21.00;59.30
38436;DHT22;24220;48.168;14.024;2022-10-13T12:11:04;21.00;59.50
38436;DHT22;24220;48.168;14.024;2022-10-13T12:13:35;21.00;59.20
38436;DHT22;24220;48.168;14.024;2022-10-13T12:16:06;21.00;59.00
38436;DHT22;24220;48.168;14.024;2022-10-13T12:18:36;20.90;58.50
38436;DHT22;24220;48.168;14.024;2022-10-13T12:21:10;21.00;59.10
38436;DHT22;24220;48.168;14.024;2022-10-13T12:23:37;21.00;59.20
38436;DHT22;24220;48.168;14.024;2022-10-13T12:26:05;21.00;59.70
38436;DHT22;24220;48.168;14.024;2022-10-13T12:28:51;21.00;59.50
38436;DHT22;24220;48.168;14.024;2022-10-13T12:34:00;21.00;59.70
38436;DHT22;24220;48.168;14.024;2022-10-13T12:36:34;21.00;59.40
38436;DHT22;24220;48.168;14.024;2022-10-13T12:39:06;21.00;58.40
38436;DHT22;24220;48.168;14.024;2022-10-13T12:41:41;21.00;58.00
38436;DHT22;24220;48.168;14.024;2022-10-13T12:44:17;21.00;57.90
38436;DHT22;24220;48.168;14.024;2022-10-13T12:46:51;21.00;58.20
38436;DHT22;24220;48.168;14.024;2022-10-13T12:52:12;21.10;58.40
38436;DHT22;24220;48.168;14.024;2022-10-13T12:54:52;21.00;57.90
38436;DHT22;24220;48.168;14.024;2022-10-13T12:57:32;21.00;57.40
38436;DHT22;24220;48.168;14.024;2022-10-13T13:02:54;21.00;58.10
38436;DHT22;24220;48.168;14.024;2022-10-13T13:07:59;21.00;57.20
38436;DHT22;24220;48.168;14.024;2022-10-13T13:10:27;21.00;57.80
38436;DHT22;24220;48.168;14.024;2022-10-13T13:13:12;21.00;58.10
38436;DHT22;24220;48.168;14.024;2022-10-13T13:15:42;21.00;58.00
38436;DHT22;24220;48.168;14.024;2022-10-13T13:18:37;21.00;58.10
38436;DHT22;24220;48.168;14.024;2022-10-13T13:21:08;21.00;58.60
38436;DHT22;24220;48.168;14.024;2022-10-13T13:23:36;21.00;58.60
38436;DHT22;24220;48.168;14.024;2022-10-13T13:26:13;21.00;58.10
38436;DHT22;24220;48.168;14.024;2022-10-13T13:28:46;21.00;58.60
38436;DHT22;24220;48.168;14.024;2022-10-13T13:31:16;21.00;58.30
38436;DHT22;24220;48.168;14.024;2022-10-13T13:33:45;20.90;57.90
38436;DHT22;24220;48.168;14.024;2022-10-13T13:36:15;21.00;57.80
38436;DHT22;24220;48.168;14.024;2022-10-13T13:38:48;20.90;58.00
38436;DHT22;24220;48.168;14.024;2022-10-13T13:41:18;20.90;58.50
38436;DHT22;24220;48.168;14.024;2022-10-13T13:43:45;20.90;58.80
38436;DHT22;24220;48.168;14.024;2022-10-13T13:46:20;20.90;58.90
38436;DHT22;24220;48.168;14.024;2022-10-13T13:48:51;21.00;59.20
38436;DHT22;24220;48.168;14.024;2022-10-13T13:51:23;21.00;58.70
38436;DHT22;24220;48.168;14.024;2022-10-13T13:53:53;21.00;58.20
38436;DHT22;24220;48.168;14.024;2022-10-13T13:56:20;21.00;57.80
38436;DHT22;24220;48.168;14.024;2022-10-13T13:58:48;21.00;57.70
38436;DHT22;24220;48.168;14.024;2022-10-13T14:01:15;21.00;57.80
38436;DHT22;24220;48.168;14.024;2022-10-13T14:03:42;21.00;57.40
38436;DHT22;24220;48.168;14.024;2022-10-13T14:06:16;21.00;56.90
38436;DHT22;24220;48.168;14.024;2022-10-13T14:08:45;20.90;57.10
38436;DHT22;24220;48.168;14.024;2022-10-13T14:11:12;20.90;57.50
38436;DHT22;24220;48.168;14.024;2022-10-13T14:13:42;20.90;57.70
38436;DHT22;24220;48.168;14.024;2022-10-13T14:16:14;20.90;57.60
38436;DHT22;24220;48.168;14.024;2022-10-13T14:18:43;20.90;57.50
38436;DHT22;24220;48.168;14.024;2022-10-13T14:21:12;20.90;58.10
38436;DHT22;24220;48.168;14.024;2022-10-13T14:23:44;20.90;57.70
38436;DHT22;24220;48.168;14.024;2022-10-13T14:26:14;20.90;58.00
38436;DHT22;24220;48.168;14.024;2022-10-13T14:28:43;20.90;58.20
38436;DHT22;24220;48.168;14.024;2022-10-13T14:31:10;20.90;58.50
38436;DHT22;24220;48.168;14.024;2022-10-13T14:33:38;20.90;58.50
38436;DHT22;24220;48.168;14.024;2022-10-13T14:36:05;20.90;58.30
38436;DHT22;24220;48.168;14.024;2022-10-13T14:38:33;20.90;58.60
38436;DHT22;24220;48.168;14.024;2022-10-13T14:41:03;20.90;58.80
38436;DHT22;24220;48.168;14.024;2022-10-13T14:43:30;20.90;59.20
38436;DHT22;24220;48.168;14.024;2022-10-13T14:46:05;20.90;59.50
38436;DHT22;24220;48.168;14.024;2022-10-13T14:48:38;20.90;59.20
38436;DHT22;24220;48.168;14.024;2022-10-13T14:51:08;20.90;59.00
38436;DHT22;24220;48.168;14.024;2022-10-13T14:53:38;20.90;58.90
38436;DHT22;24220;48.168;14.024;2022-10-13T14:56:26;20.90;58.80
38436;DHT22;24220;48.168;14.024;2022-10-13T14:59:00;20.90;58.20
38436;DHT22;24220;48.168;14.024;2022-10-13T15:01:31;20.90;57.90
38436;DHT22;24220;48.168;14.024;2022-10-13T15:04:02;20.80;57.70
38436;DHT22;24220;48.168;14.024;2022-10-13T15:06:30;20.80;57.80
38436;DHT22;24220;48.168;14.024;2022-10-13T15:09:00;20.80;58.40
38436;DHT22;24220;48.168;14.024;2022-10-13T15:11:28;20.80;58.90
38436;DHT22;24220;48.168;14.024;2022-10-13T15:13:55;20.80;58.70
38436;DHT22;24220;48.168;14.024;2022-10-13T15:16:27;20.80;58.90
38436;DHT22;24220;48.168;14.024;2022-10-13T15:18:55;20.80;59.40
38436;DHT22;24220;48.168;14.024;2022-10-13T15:21:23;20.80;59.00
38436;DHT22;24220;48.168;14.024;2022-10-13T15:23:54;20.80;59.30
38436;DHT22;24220;48.168;14.024;2022-10-13T15:26:22;20.80;59.20
38436;DHT22;24220;48.168;14.024;2022-10-13T15:28:52;20.80;59.20
38436;DHT22;24220;48.168;14.024;2022-10-13T15:31:22;20.80;59.40
38436;DHT22;24220;48.168;14.024;2022-10-13T15:33:52;20.80;59.80
38436;DHT22;24220;48.168;14.024;2022-10-13T15:36:20;20.80;59.80
38436;DHT22;24220;48.168;14.024;2022-10-13T15:38:49;20.80;59.70
38436;DHT22;24220;48.168;14.024;2022-10-13T15:41:16;20.70;59.50
38436;DHT22;24220;48.168;14.024;2022-10-13T15:43:44;20.70;59.80
38436;DHT22;24220;48.168;14.024;2022-10-13T15:46:13;20.70;59.70
38436;DHT22;24220;48.168;14.024;2022-10-13T15:48:50;20.70;59.50
38436;DHT22;24220;48.168;14.024;2022-10-13T15:51:19;20.70;59.60
38436;DHT22;24220;48.168;14.024;2022-10-13T15:53:47;20.70;59.80
38436;DHT22;24220;48.168;14.024;2022-10-13T15:56:17;20.70;59.70
38436;DHT22;24220;48.168;14.024;2022-10-13T15:58:46;20.70;59.60
38436;DHT22;24220;48.168;14.024;2022-10-13T16:01:13;20.70;59.80
38436;DHT22;24220;48.168;14.024;2022-10-13T16:03:43;20.60;59.60
38436;DHT22;24220;48.168;14.024;2022-10-13T16:06:11;20.60;59.70
38436;DHT22;24220;48.168;14.024;2022-10-13T16:08:43;20.50;59.90
38436;DHT22;24220;48.168;14.024;2022-10-13T16:11:13;20.50;59.90
38436;DHT22;24220;48.168;14.024;2022-10-13T16:13:47;20.40;60.00
38436;DHT22;24220;48.168;14.024;2022-10-13T16:16:18;20.40;60.10
38436;DHT22;24220;48.168;14.024;2022-10-13T16:18:48;20.40;60.10
38436;DHT22;24220;48.168;14.024;2022-10-13T16:21:19;20.30;60.00
38436;DHT22;24220;48.168;14.024;2022-10-13T16:23:52;20.30;60.10
38436;DHT22;24220;48.168;14.024;2022-10-13T16:26:20;20.30;60.10
38436;DHT22;24220;48.168;14.024;2022-10-13T16:28:55;20.30;60.20
38436;DHT22;24220;48.168;14.024;2022-10-13T16:31:25;20.20;60.10
38436;DHT22;24220;48.168;14.024;2022-10-13T16:33:57;20.20;60.20
38436;DHT22;24220;48.168;14.024;2022-10-13T16:36:24;20.20;60.10
38436;DHT22;24220;48.168;14.024;2022-10-13T16:38:52;20.20;60.30
38436;DHT22;24220;48.168;14.024;2022-10-13T16:41:22;20.20;60.40
38436;DHT22;24220;48.168;14.024;2022-10-13T16:43:50;20.10;60.40
38436;DHT22;24220;48.168;14.024;2022-10-13T16:46:18;20.10;60.60
38436;DHT22;24220;48.168;14.024;2022-10-13T16:48:48;20.10;60.70
38436;DHT22;24220;48.168;14.024;2022-10-13T16:51:21;20.00;60.70
38436;DHT22;24220;48.168;14.024;2022-10-13T16:53:51;20.00;60.60
38436;DHT22;24220;48.168;14.024;2022-10-13T16:56:19;20.00;60.70
38436;DHT22;24220;48.168;14.024;2022-10-13T16:58:59;20.00;60.70
38436;DHT22;24220;48.168;14.024;2022-10-13T17:01:27;20.00;60.80
38436;DHT22;24220;48.168;14.024;2022-10-13T17:03:55;20.00;61.00
38436;DHT22;24220;48.168;14.024;2022-10-13T17:06:26;19.90;60.90
38436;DHT22;24220;48.168;14.024;2022-10-13T17:08:57;19.90;60.80
38436;DHT22;24220;48.168;14.024;2022-10-13T17:11:27;19.90;60.90
38436;DHT22;24220;48.168;14.024;2022-10-13T17:13:59;19.90;60.70
38436;DHT22;24220;48.168;14.024;2022-10-13T17:16:26;19.80;60.80
38436;DHT22;24220;48.168;14.024;2022-10-13T17:18:54;19.80;60.60
38436;DHT22;24220;48.168;14.024;2022-10-13T17:21:22;19.80;60.70
38436;DHT22;24220;48.168;14.024;2022-10-13T17:23:54;19.80;61.00
38436;DHT22;24220;48.168;14.024;2022-10-13T17:26:21;19.70;60.90
38436;DHT22;24220;48.168;14.024;2022-10-13T17:28:49;19.70;61.00
38436;DHT22;24220;48.168;14.024;2022-10-13T17:31:21;19.70;61.10